Time;durP1;ratioP1;P1;durP2;ratioP2;P2;SDS_P1;SDS_P2;PMS_P1;PMS_P2;Temp;Humidity;BMP_temperature;BMP_pressure;BME280_temperature;BME280_humidity;BME280_pressure;Samples;Min_cycle;Max_cycle;Signal;HPM_P1;HPM_P2
2022/01/04 00:00:47;;;;;;;33.38;6.15;;;7.90;99.90;;;;;;5008031;28;20048;-67
2022/01/04 00:03:12;;;;;;;32.30;5.35;;;7.90;99.90;;;;;;5027570;28;20057;-67
2022/01/04 00:05:39;;;;;;;29.10;5.18;;;7.90;99.90;;;;;;5029553;28;20108;-67
2022/01/04 00:08:08;;;;;;;35.35;6.63;;;7.90;99.90;;;;;;5024005;28;20906;-67
2022/01/04 00:10:35;;;;;;;35.88;5.68;;;7.90;99.90;;;;;;5029871;28;20076;-67
2022/01/04 00:15:44;;;;;;;32.80;5.65;;;7.90;99.90;;;;;;5002196;28;20128;-67
2022/01/04 00:18:11;;;;;;;22.15;4.63;;;7.90;99.90;;;;;;5010720;28;20128;-67
2022/01/04 00:20:37;;;;;;;35.08;6.00;;;8.00;99.90;;;;;;5005604;28;20046;-67
2022/01/04 00:23:03;;;;;;;27.70;6.00;;;8.00;99.90;;;;;;5026965;28;20044;-67
2022/01/04 00:25:29;;;;;;;32.38;4.10;;;8.00;99.90;;;;;;5017474;28;20042;-67
2022/01/04 00:27:55;;;;;;;35.00;5.88;;;8.00;99.90;;;;;;5010860;28;20300;-67
2022/01/04 00:30:20;;;;;;;33.80;4.95;;;8.00;99.90;;;;;;5023466;28;20485;-67
2022/01/04 00:32:46;;;;;;;30.30;4.90;;;8.00;99.90;;;;;;5022019;28;20048;-67
2022/01/04 00:35:11;;;;;;;25.13;6.90;;;8.10;99.90;;;;;;5025362;28;20045;-67
2022/01/04 00:37:37;;;;;;;28.73;6.22;;;8.10;99.90;;;;;;5028724;28;20116;-68
2022/01/04 00:40:03;;;;;;;35.67;6.45;;;8.10;99.90;;;;;;5019646;28;20034;-67
2022/01/04 00:42:29;;;;;;;23.63;4.25;;;8.10;99.90;;;;;;5022613;28;20063;-67
2022/01/04 00:44:54;;;;;;;32.42;4.82;;;8.10;99.90;;;;;;5032134;28;20095;-67
2022/01/04 00:47:26;;;;;;;37.70;5.53;;;8.10;99.90;;;;;;5022494;28;20458;-67
2022/01/04 00:49:52;;;;;;;29.13;5.70;;;8.10;99.90;;;;;;5011047;28;20535;-65
2022/01/04 00:52:17;;;;;;;22.42;5.25;;;8.20;99.90;;;;;;5019608;28;20056;-65
2022/01/04 00:54:45;;;;;;;36.22;6.30;;;8.20;99.90;;;;;;5018676;28;20466;-66
2022/01/04 00:57:11;;;;;;;24.13;4.50;;;8.20;99.90;;;;;;5025231;28;20481;-65
2022/01/04 00:59:36;;;;;;;30.55;5.55;;;8.20;99.90;;;;;;5025022;28;20037;-65
2022/01/04 01:02:02;;;;;;;30.70;6.10;;;8.20;99.90;;;;;;5022504;28;20045;-65
2022/01/04 01:04:27;;;;;;;29.48;5.22;;;8.20;99.90;;;;;;5026072;28;20042;-65
2022/01/04 01:06:53;;;;;;;34.67;5.35;;;8.20;99.90;;;;;;5026981;28;20485;-65
2022/01/04 01:09:20;;;;;;;33.25;5.65;;;8.20;99.90;;;;;;5024385;28;20748;-65
2022/01/04 01:11:45;;;;;;;31.42;6.43;;;8.20;99.90;;;;;;5019549;28;20081;-66
2022/01/04 01:14:11;;;;;;;16.50;4.25;;;8.20;99.90;;;;;;4997784;28;20088;-65
2022/01/04 01:16:36;;;;;;;34.25;5.32;;;8.10;99.90;;;;;;5018116;28;20517;-65
2022/01/04 01:19:02;;;;;;;29.08;6.00;;;8.10;99.90;;;;;;5006183;28;20523;-65
2022/01/04 01:21:28;;;;;;;35.58;6.95;;;8.10;99.90;;;;;;5021440;28;20460;-65
2022/01/04 01:23:53;;;;;;;27.77;5.43;;;8.10;99.90;;;;;;5019821;28;20120;-65
2022/01/04 01:26:19;;;;;;;33.75;5.72;;;8.10;99.90;;;;;;5006777;28;20045;-66
2022/01/04 01:28:45;;;;;;;28.80;5.82;;;8.10;99.90;;;;;;5024426;28;20077;-65
2022/01/04 01:31:11;;;;;;;34.53;5.82;;;8.10;99.90;;;;;;5004394;28;20485;-66
2022/01/04 01:33:37;;;;;;;31.73;5.95;;;8.10;99.90;;;;;;5013006;28;20053;-66
2022/01/04 01:36:03;;;;;;;30.92;6.25;;;8.10;99.90;;;;;;5020991;28;20124;-66
2022/01/04 01:38:29;;;;;;;23.83;5.70;;;8.10;99.90;;;;;;5003678;28;20482;-65
2022/01/04 01:40:54;;;;;;;25.63;5.82;;;8.10;99.90;;;;;;5019902;28;20057;-66
2022/01/04 01:43:24;;;;;;;39.78;6.20;;;8.10;99.90;;;;;;5017607;28;20481;-65
2022/01/04 01:45:50;;;;;;;35.10;7.00;;;8.10;99.90;;;;;;5022008;28;20045;-66
2022/01/04 01:48:16;;;;;;;37.75;8.20;;;8.10;99.90;;;;;;5022670;28;20053;-65
2022/01/04 01:50:41;;;;;;;37.28;6.57;;;8.10;99.90;;;;;;5005940;28;20045;-65
2022/01/04 01:53:07;;;;;;;33.97;6.38;;;8.20;99.90;;;;;;5020441;28;20046;-66
2022/01/04 01:55:33;;;;;;;42.53;8.43;;;8.10;99.90;;;;;;5025211;28;20068;-66
2022/01/04 01:57:59;;;;;;;31.60;7.70;;;8.20;99.90;;;;;;5004183;28;20084;-66
2022/01/04 02:00:27;;;;;;;29.73;6.72;;;8.10;99.90;;;;;;5022997;28;20040;-65
2022/01/04 02:02:53;;;;;;;43.72;7.00;;;8.20;99.90;;;;;;5017766;28;20096;-66
2022/01/04 02:05:19;;;;;;;27.17;6.35;;;8.20;99.90;;;;;;5006147;28;20045;-66
2022/01/04 02:07:45;;;;;;;38.03;6.72;;;8.20;99.90;;;;;;5022078;28;20107;-66
2022/01/04 02:10:11;;;;;;;40.70;7.68;;;8.20;99.90;;;;;;5019578;28;20085;-65
2022/01/04 02:12:39;;;;;;;47.45;7.20;;;8.20;99.90;;;;;;5020731;28;20042;-66
2022/01/04 02:15:09;;;;;;;36.58;6.28;;;8.20;99.90;;;;;;5019526;28;20056;-65
2022/01/04 02:17:35;;;;;;;41.35;7.72;;;8.20;99.90;;;;;;5019596;28;20129;-66
2022/01/04 02:20:02;;;;;;;34.30;7.93;;;8.20;99.90;;;;;;5024004;28;20041;-66
2022/01/04 02:22:28;;;;;;;34.10;8.43;;;8.20;99.90;;;;;;5025497;28;20076;-66
2022/01/04 02:24:54;;;;;;;30.50;8.40;;;8.20;99.90;;;;;;5025082;28;20077;-66
2022/01/04 02:27:20;;;;;;;48.05;8.50;;;8.20;99.90;;;;;;5018563;28;20409;-65
2022/01/04 02:29:47;;;;;;;39.95;7.55;;;8.20;99.90;;;;;;5000752;28;20053;-65
2022/01/04 02:32:14;;;;;;;38.47;9.00;;;8.20;99.90;;;;;;5006307;28;20049;-66
2022/01/04 02:34:40;;;;;;;43.75;10.18;;;8.20;99.90;;;;;;5005980;28;20045;-67
2022/01/04 02:37:07;;;;;;;44.13;8.50;;;8.20;99.90;;;;;;5017533;28;20100;-66
2022/01/04 02:39:36;;;;;;;32.50;9.90;;;8.10;99.90;;;;;;5005224;28;20080;-66
2022/01/04 02:42:06;;;;;;;54.97;10.82;;;8.20;99.90;;;;;;5018505;28;20041;-67
2022/01/04 02:44:32;;;;;;;41.92;9.07;;;8.10;99.90;;;;;;5012622;28;20144;-67
2022/01/04 02:46:58;;;;;;;49.15;11.82;;;8.10;99.90;;;;;;5026219;28;20095;-67
2022/01/04 02:49:24;;;;;;;40.47;10.75;;;8.10;99.90;;;;;;5017091;28;20516;-67
2022/01/04 02:51:50;;;;;;;37.15;8.60;;;8.10;99.90;;;;;;5004262;28;20077;-67
2022/01/04 02:54:16;;;;;;;56.47;11.70;;;8.10;99.90;;;;;;5021493;28;20041;-67
2022/01/04 02:56:42;;;;;;;51.25;13.38;;;8.10;99.90;;;;;;5008747;28;20049;-67
2022/01/04 02:59:07;;;;;;;63.63;11.93;;;8.10;99.90;;;;;;5013107;28;20042;-67
2022/01/04 03:01:33;;;;;;;48.58;10.13;;;8.10;99.90;;;;;;5028321;28;20063;-67
2022/01/04 03:03:59;;;;;;;39.55;9.40;;;8.10;99.90;;;;;;5028737;28;20068;-67
2022/01/04 03:06:24;;;;;;;51.25;9.80;;;8.10;99.90;;;;;;5018439;28;20137;-67
2022/01/04 03:08:50;;;;;;;42.65;9.30;;;8.10;99.90;;;;;;5022047;28;20040;-67
2022/01/04 03:11:16;;;;;;;55.85;10.60;;;8.10;99.90;;;;;;5015003;28;20049;-67
2022/01/04 03:13:41;;;;;;;43.40;10.50;;;8.10;99.90;;;;;;5023047;28;20096;-67
2022/01/04 03:16:07;;;;;;;49.92;9.68;;;8.10;99.90;;;;;;5023799;28;20046;-67
2022/01/04 03:18:33;;;;;;;50.70;10.00;;;8.20;99.90;;;;;;5008609;28;20052;-67
2022/01/04 03:20:58;;;;;;;48.17;10.25;;;8.20;99.90;;;;;;5021741;28;20107;-67
2022/01/04 03:23:24;;;;;;;34.33;8.80;;;8.20;99.90;;;;;;4999655;28;20085;-66
2022/01/04 03:25:49;;;;;;;44.47;10.60;;;8.20;99.90;;;;;;5028892;28;20100;-67
2022/01/04 03:28:19;;;;;;;51.97;10.52;;;8.20;99.90;;;;;;5010364;28;20057;-67
2022/01/04 03:30:45;;;;;;;51.15;10.40;;;8.20;99.90;;;;;;5025256;28;20539;-66
2022/01/04 03:33:11;;;;;;;43.47;9.68;;;8.20;99.90;;;;;;5010015;28;20049;-67
2022/01/04 03:35:36;;;;;;;47.92;8.07;;;8.20;99.90;;;;;;5021477;28;20042;-67
2022/01/04 03:38:02;;;;;;;47.33;10.02;;;8.20;99.90;;;;;;5026287;28;20136;-67
2022/01/04 03:40:27;;;;;;;33.15;8.32;;;8.20;99.90;;;;;;5021569;28;20137;-67
2022/01/04 03:42:53;;;;;;;35.45;8.10;;;8.20;99.90;;;;;;5003563;28;20081;-67
2022/01/04 03:45:18;;;;;;;38.10;8.50;;;8.20;99.90;;;;;;5001263;28;20049;-67
2022/01/04 03:47:44;;;;;;;34.15;8.18;;;8.20;99.90;;;;;;5017024;28;20044;-67
2022/01/04 03:50:10;;;;;;;43.88;9.65;;;8.20;99.90;;;;;;5001522;28;20103;-67
2022/01/04 03:52:36;;;;;;;36.35;8.18;;;8.20;99.90;;;;;;5017287;28;20049;-67
2022/01/04 03:55:04;;;;;;;43.33;7.00;;;8.20;99.90;;;;;;5018599;28;20452;-67
2022/01/04 03:57:29;;;;;;;41.00;7.88;;;8.20;99.90;;;;;;5016961;28;20045;-67
2022/01/04 03:59:55;;;;;;;46.53;8.32;;;8.20;99.90;;;;;;5002685;28;20165;-66
2022/01/04 04:02:20;;;;;;;34.92;6.60;;;8.20;99.90;;;;;;5027999;28;20073;-67
2022/01/04 04:04:46;;;;;;;26.50;6.28;;;8.20;99.90;;;;;;5025379;28;20475;-67
2022/01/04 04:07:11;;;;;;;31.77;7.13;;;8.20;99.90;;;;;;5028657;28;20489;-67
2022/01/04 04:09:37;;;;;;;41.72;6.65;;;8.20;99.90;;;;;;5022219;28;20088;-67
2022/01/04 04:12:03;;;;;;;37.88;8.10;;;8.20;99.90;;;;;;5016664;28;20096;-67
2022/01/04 04:14:29;;;;;;;36.92;7.45;;;8.20;99.90;;;;;;5018232;28;20034;-67
2022/01/04 04:16:55;;;;;;;45.20;7.85;;;8.20;99.90;;;;;;5023924;28;21021;-67
2022/01/04 04:19:20;;;;;;;40.53;5.70;;;8.20;99.90;;;;;;5007276;28;20084;-67
2022/01/04 04:21:46;;;;;;;28.77;5.90;;;8.20;99.90;;;;;;5013590;28;20046;-67
2022/01/04 04:24:11;;;;;;;40.80;7.57;;;8.30;99.90;;;;;;5027463;28;20421;-67
2022/01/04 04:26:37;;;;;;;28.50;6.00;;;8.20;99.90;;;;;;5010418;28;20493;-67
2022/01/04 04:29:03;;;;;;;43.88;5.57;;;8.30;99.90;;;;;;5021721;28;20477;-67
2022/01/04 04:31:28;;;;;;;41.95;6.35;;;8.30;99.90;;;;;;5021154;28;20045;-67
2022/01/04 04:33:54;;;;;;;41.70;6.95;;;8.30;99.90;;;;;;5021131;28;20061;-67
2022/01/04 04:36:19;;;;;;;28.88;6.47;;;8.30;99.90;;;;;;5022354;28;20033;-67
2022/01/04 04:38:45;;;;;;;27.10;5.57;;;8.30;99.90;;;;;;5016828;28;20056;-67
2022/01/04 04:41:10;;;;;;;26.65;5.20;;;8.30;99.90;;;;;;5006248;28;20042;-67
2022/01/04 04:43:36;;;;;;;39.47;7.25;;;8.30;99.90;;;;;;5024199;28;20045;-67
2022/01/04 04:46:02;;;;;;;33.28;5.45;;;8.30;99.90;;;;;;5027742;28;20042;-67
2022/01/04 04:48:28;;;;;;;37.35;6.65;;;8.30;99.90;;;;;;5021639;28;20408;-67
2022/01/04 04:50:53;;;;;;;32.30;6.45;;;8.30;99.90;;;;;;5025318;28;20041;-67
2022/01/04 04:53:19;;;;;;;44.67;6.50;;;8.30;99.90;;;;;;5012452;28;20467;-67
2022/01/04 04:55:44;;;;;;;40.63;8.23;;;8.30;99.90;;;;;;5010184;28;22405;-67
2022/01/04 04:58:10;;;;;;;36.42;7.60;;;8.30;99.90;;;;;;5022671;28;20397;-67
2022/01/04 05:00:36;;;;;;;29.88;5.28;;;8.40;99.90;;;;;;5028752;28;20384;-67
2022/01/04 05:03:02;;;;;;;32.80;5.20;;;8.40;99.90;;;;;;5026564;28;20547;-67
2022/01/04 05:05:27;;;;;;;33.63;5.13;;;8.30;99.90;;;;;;5017966;28;20056;-67
2022/01/04 05:07:53;;;;;;;24.17;4.72;;;8.30;99.90;;;;;;5015694;28;20136;-67
2022/01/04 05:10:19;;;;;;;45.08;6.90;;;8.30;99.90;;;;;;5022576;28;20456;-67
2022/01/04 05:12:44;;;;;;;35.13;5.88;;;8.30;99.90;;;;;;5027421;28;20053;-67
2022/01/04 05:15:10;;;;;;;32.53;5.57;;;8.40;99.90;;;;;;5024384;28;20409;-67
2022/01/04 05:17:36;;;;;;;51.92;6.93;;;8.40;99.90;;;;;;5017946;28;20096;-67
2022/01/04 05:20:03;;;;;;;34.13;5.85;;;8.30;99.90;;;;;;5026326;28;20045;-67
2022/01/04 05:22:28;;;;;;;23.80;5.00;;;8.40;99.90;;;;;;5019634;28;20543;-67
2022/01/04 05:24:54;;;;;;;35.08;5.43;;;8.30;99.90;;;;;;5018505;28;20137;-67
2022/01/04 05:27:19;;;;;;;46.45;6.90;;;8.40;99.90;;;;;;5023140;28;20169;-67
2022/01/04 05:29:45;;;;;;;44.22;7.15;;;8.30;99.90;;;;;;5021092;28;20135;-67
2022/01/04 05:32:10;;;;;;;38.55;6.60;;;8.40;99.90;;;;;;5023649;28;20041;-67
2022/01/04 05:34:36;;;;;;;40.38;6.85;;;8.40;99.90;;;;;;5008342;28;20052;-67
2022/01/04 05:37:02;;;;;;;38.72;6.25;;;8.30;99.90;;;;;;5010287;28;20060;-67
2022/01/04 05:39:27;;;;;;;30.23;5.47;;;8.30;99.90;;;;;;5006200;28;20034;-66
2022/01/04 05:41:53;;;;;;;40.63;6.40;;;8.40;99.90;;;;;;5017597;28;20051;-67
2022/01/04 05:44:19;;;;;;;30.80;4.97;;;8.40;99.90;;;;;;5024973;28;20048;-67
2022/01/04 05:46:44;;;;;;;33.58;7.18;;;8.40;99.90;;;;;;5016780;28;20510;-67
2022/01/04 05:49:10;;;;;;;29.85;5.15;;;8.40;99.90;;;;;;5019935;28;20041;-67
2022/01/04 05:51:35;;;;;;;35.97;5.05;;;8.40;99.90;;;;;;5018104;28;20041;-66
2022/01/04 05:54:01;;;;;;;35.83;5.75;;;8.40;99.90;;;;;;5020265;28;20057;-67
2022/01/04 05:56:27;;;;;;;37.72;5.50;;;8.40;99.90;;;;;;5016507;28;20045;-67
2022/01/04 05:58:52;;;;;;;35.08;5.70;;;8.40;99.90;;;;;;5019291;28;20128;-67
2022/01/04 06:01:18;;;;;;;34.85;6.15;;;8.40;99.90;;;;;;5022805;28;20050;-68
2022/01/04 06:03:46;;;;;;;36.42;5.80;;;8.40;99.90;;;;;;5019290;28;20152;-67
2022/01/04 06:06:12;;;;;;;25.08;5.68;;;8.40;99.90;;;;;;5024849;28;20572;-68
2022/01/04 06:08:38;;;;;;;34.88;5.43;;;8.40;99.90;;;;;;5007536;28;20061;-66
2022/01/04 06:11:04;;;;;;;29.30;5.55;;;8.40;99.90;;;;;;5025943;28;20057;-67
2022/01/04 06:16:33;;;;;;;35.90;6.90;;;8.40;99.90;;;;;;4942547;28;21663;-67
2022/01/04 06:18:59;;;;;;;30.35;5.15;;;8.40;99.90;;;;;;4942417;28;20047;-67
2022/01/04 06:21:24;;;;;;;37.58;5.88;;;8.40;99.90;;;;;;4964501;28;20087;-67
2022/01/04 06:23:50;;;;;;;37.08;6.72;;;8.40;99.90;;;;;;5024204;28;20064;-67
2022/01/04 06:26:15;;;;;;;30.35;5.82;;;8.40;99.90;;;;;;5022825;28;20049;-67
2022/01/04 06:28:42;;;;;;;30.60;5.65;;;8.40;99.90;;;;;;5024188;28;20128;-67
2022/01/04 06:31:07;;;;;;;21.85;5.50;;;8.40;99.90;;;;;;5006036;28;20454;-67
2022/01/04 06:33:33;;;;;;;28.90;5.70;;;8.40;99.90;;;;;;5002679;28;20076;-67
2022/01/04 06:35:58;;;;;;;29.15;5.03;;;8.40;99.90;;;;;;5009689;28;20439;-67
2022/01/04 06:38:24;;;;;;;35.55;5.13;;;8.40;99.90;;;;;;5024159;28;20409;-67
2022/01/04 06:40:49;;;;;;;29.10;5.32;;;8.40;99.90;;;;;;5002075;28;20393;-67
2022/01/04 06:43:15;;;;;;;28.45;6.80;;;8.40;99.90;;;;;;5029175;28;20088;-67
2022/01/04 06:45:40;;;;;;;37.40;6.82;;;8.40;99.90;;;;;;5033008;28;20060;-67
2022/01/04 06:48:06;;;;;;;32.10;5.55;;;8.40;99.90;;;;;;5021489;28;20091;-66
2022/01/04 06:50:32;;;;;;;32.22;5.60;;;8.40;99.90;;;;;;5008219;28;20103;-66
2022/01/04 06:52:57;;;;;;;29.75;5.78;;;8.40;99.90;;;;;;5003667;28;20052;-66
2022/01/04 06:55:23;;;;;;;16.35;4.03;;;8.40;99.90;;;;;;5009003;28;20444;-66
2022/01/04 06:57:48;;;;;;;26.25;5.22;;;8.40;99.90;;;;;;5018564;28;20385;-66
2022/01/04 07:00:14;;;;;;;20.75;4.78;;;8.40;99.90;;;;;;5024469;28;20126;-66
2022/01/04 07:02:40;;;;;;;28.83;5.78;;;8.30;99.90;;;;;;5025674;28;20128;-66
2022/01/04 07:05:05;;;;;;;27.35;4.95;;;8.30;99.90;;;;;;5023841;28;20064;-66
2022/01/04 07:07:31;;;;;;;27.50;5.45;;;8.30;99.90;;;;;;5015994;28;20042;-67
2022/01/04 07:09:57;;;;;;;24.60;4.63;;;8.30;99.90;;;;;;5023853;28;20452;-67
2022/01/04 07:12:22;;;;;;;24.20;5.30;;;8.30;99.90;;;;;;5015133;28;20058;-67
2022/01/04 07:14:48;;;;;;;26.88;4.90;;;8.30;99.90;;;;;;5006559;28;20049;-67
2022/01/04 07:17:13;;;;;;;23.98;4.18;;;8.20;99.90;;;;;;5004439;28;20038;-67
2022/01/04 07:19:39;;;;;;;29.70;5.97;;;8.20;99.90;;;;;;4998314;28;20034;-67
2022/01/04 07:22:05;;;;;;;20.00;4.15;;;8.20;99.90;;;;;;4999054;28;20072;-67
2022/01/04 07:24:30;;;;;;;22.80;4.30;;;8.20;99.90;;;;;;5018063;28;20961;-67
2022/01/04 07:26:56;;;;;;;27.73;4.95;;;8.20;99.90;;;;;;4997492;28;20057;-67
2022/01/04 07:29:22;;;;;;;28.52;6.20;;;8.20;99.90;;;;;;5025849;28;20092;-67
2022/01/04 07:31:47;;;;;;;22.08;5.10;;;8.20;99.90;;;;;;5022820;28;20076;-68
2022/01/04 07:34:13;;;;;;;23.52;4.45;;;8.20;99.90;;;;;;5024859;28;20052;-67
2022/01/04 07:36:38;;;;;;;37.13;6.38;;;8.20;99.90;;;;;;5025411;28;20394;-67
2022/01/04 07:39:04;;;;;;;23.90;5.70;;;8.20;99.90;;;;;;5011707;28;20103;-68
2022/01/04 07:41:29;;;;;;;27.05;4.88;;;8.20;99.90;;;;;;5022376;28;20477;-67
2022/01/04 07:43:55;;;;;;;22.25;5.28;;;8.20;99.90;;;;;;5006982;28;20564;-68
2022/01/04 07:46:21;;;;;;;35.78;6.35;;;8.20;99.90;;;;;;5013264;28;20549;-68
2022/01/04 07:48:49;;;;;;;33.58;4.57;;;8.20;99.90;;;;;;5014966;28;20605;-68
2022/01/04 07:51:14;;;;;;;36.90;5.88;;;8.20;99.90;;;;;;5025170;28;20464;-68
2022/01/04 07:53:40;;;;;;;30.75;5.90;;;8.20;99.90;;;;;;5022416;28;20052;-68
2022/01/04 07:56:05;;;;;;;30.90;6.05;;;8.20;99.90;;;;;;5028926;28;20500;-68
2022/01/04 07:58:31;;;;;;;36.95;6.85;;;8.20;99.90;;;;;;5028318;28;20042;-67
2022/01/04 08:00:56;;;;;;;24.05;6.97;;;8.20;99.90;;;;;;5025663;28;20125;-68
2022/01/04 08:03:22;;;;;;;16.25;3.63;;;8.20;99.90;;;;;;5017401;28;20046;-66
2022/01/04 08:05:48;;;;;;;12.15;2.22;;;8.10;99.90;;;;;;5028613;28;20098;-66
2022/01/04 08:08:14;;;;;;;12.15;3.17;;;8.00;99.90;;;;;;5019322;28;20037;-65
2022/01/04 08:10:39;;;;;;;5.70;1.52;;;8.00;99.90;;;;;;5009411;28;20049;-68
2022/01/04 08:13:05;;;;;;;5.68;1.98;;;8.00;99.90;;;;;;5009145;28;20053;-68
2022/01/04 08:15:31;;;;;;;4.35;1.40;;;8.00;99.90;;;;;;5011897;28;20046;-68
2022/01/04 08:17:57;;;;;;;3.10;1.10;;;7.90;99.90;;;;;;5026850;28;20120;-68
2022/01/04 08:20:23;;;;;;;7.35;1.50;;;7.90;99.90;;;;;;5020996;28;20117;-67
2022/01/04 08:22:48;;;;;;;10.50;2.33;;;7.90;99.90;;;;;;5023843;28;20053;-68
2022/01/04 08:25:14;;;;;;;6.28;1.35;;;7.90;99.90;;;;;;5005217;28;20042;-68
2022/01/04 08:27:40;;;;;;;10.02;1.52;;;7.80;99.90;;;;;;5027341;28;20048;-67
2022/01/04 08:30:08;;;;;;;3.70;1.00;;;7.80;99.90;;;;;;5022312;28;20485;-68
2022/01/04 08:32:34;;;;;;;6.32;1.77;;;7.80;99.90;;;;;;5020696;28;20046;-67
2022/01/04 08:35:00;;;;;;;7.10;1.52;;;7.80;99.90;;;;;;5021937;28;20052;-67
2022/01/04 08:37:26;;;;;;;8.27;2.25;;;7.80;99.90;;;;;;5028162;28;20080;-67
2022/01/04 08:39:52;;;;;;;9.30;2.15;;;7.70;99.90;;;;;;5023478;28;20486;-68
2022/01/04 08:42:22;;;;;;;8.93;1.42;;;7.70;99.90;;;;;;5014892;28;20065;-66
2022/01/04 08:44:48;;;;;;;6.70;0.95;;;7.60;99.90;;;;;;5023991;28;20056;-66
2022/01/04 08:47:13;;;;;;;5.65;1.20;;;7.60;99.90;;;;;;5030175;28;20048;-66
2022/01/04 08:49:39;;;;;;;5.10;1.10;;;7.60;99.90;;;;;;5003447;28;20493;-67
2022/01/04 08:52:06;;;;;;;24.20;1.95;;;7.60;99.90;;;;;;5007826;28;20054;-67
2022/01/04 08:54:33;;;;;;;8.13;1.20;;;7.60;99.90;;;;;;5017695;28;20033;-67
2022/01/04 08:56:58;;;;;;;7.25;1.20;;;7.60;99.90;;;;;;5026598;28;20054;-67
2022/01/04 08:59:25;;;;;;;9.48;1.73;;;7.60;99.90;;;;;;5017683;28;20052;-67
2022/01/04 09:01:51;;;;;;;7.50;1.05;;;7.60;99.90;;;;;;5021174;28;20038;-67
2022/01/04 09:04:16;;;;;;;7.03;1.20;;;7.60;99.90;;;;;;5025778;28;20052;-67
2022/01/04 09:06:42;;;;;;;4.38;1.05;;;7.60;99.90;;;;;;5015928;28;20072;-67
2022/01/04 09:09:07;;;;;;;5.43;1.35;;;7.60;99.90;;;;;;5024873;28;20053;-67
2022/01/04 09:11:33;;;;;;;7.00;1.02;;;7.60;99.90;;;;;;5027809;28;20132;-67
2022/01/04 09:14:42;;;;;;;5.43;1.13;;;7.60;99.90;;;;;;5006163;28;20490;-67
2022/01/04 09:19:36;;;;;;;8.18;1.08;;;7.60;99.90;;;;;;5023626;28;20569;-67
2022/01/04 09:22:03;;;;;;;10.50;1.50;;;7.60;99.90;;;;;;5005010;28;20049;-67
2022/01/04 09:24:28;;;;;;;7.43;1.52;;;7.60;99.90;;;;;;5034483;28;20041;-67
2022/01/04 09:26:55;;;;;;;11.63;1.98;;;7.60;99.90;;;;;;5016540;28;20057;-67
2022/01/04 09:29:20;;;;;;;3.58;0.90;;;7.60;99.90;;;;;;5026806;28;20552;-67
2022/01/04 09:31:51;;;;;;;5.43;0.73;;;7.60;99.90;;;;;;5020353;28;20037;-67
2022/01/04 09:34:17;;;;;;;5.65;1.25;;;7.50;99.90;;;;;;5020238;28;20053;-67
2022/01/04 09:36:43;;;;;;;6.15;0.95;;;7.50;99.90;;;;;;5006623;28;20477;-67
2022/01/04 09:39:13;;;;;;;2.50;0.82;;;7.40;99.90;;;;;;5004593;28;20386;-67
2022/01/04 09:41:40;;;;;;;6.43;1.00;;;7.40;99.90;;;;;;5014985;28;20056;-67
2022/01/04 09:44:06;;;;;;;3.97;0.80;;;7.40;99.90;;;;;;5017712;28;20127;-67
2022/01/04 09:46:32;;;;;;;3.80;0.60;;;7.40;99.90;;;;;;5007414;28;20092;-67
2022/01/04 09:48:58;;;;;;;7.55;0.50;;;7.40;99.90;;;;;;5010842;28;20104;-66
2022/01/04 09:51:26;;;;;;;3.80;0.73;;;7.30;99.90;;;;;;4996665;28;20688;-67
2022/01/04 09:53:52;;;;;;;4.10;0.90;;;7.30;99.90;;;;;;5025339;28;20155;-67
2022/01/04 09:56:17;;;;;;;5.30;0.90;;;7.20;99.90;;;;;;5022257;28;20120;-65
2022/01/04 09:58:43;;;;;;;6.47;1.27;;;7.20;99.90;;;;;;5006931;28;20060;-66
2022/01/04 10:01:38;;;;;;;8.23;1.30;;;7.30;99.90;;;;;;5024410;28;20037;-66
2022/01/04 10:04:05;;;;;;;7.00;1.40;;;7.20;99.90;;;;;;5008299;28;20211;-68
2022/01/04 10:06:32;;;;;;;7.60;1.80;;;7.20;99.90;;;;;;5020474;28;20493;-65
2022/01/04 10:09:03;;;;;;;7.70;1.02;;;7.20;99.90;;;;;;5020308;28;20045;-66
2022/01/04 10:11:48;;;;;;;6.65;0.73;;;7.30;99.90;;;;;;5026259;28;20045;-66
2022/01/04 10:14:35;;;;;;;5.95;1.10;;;7.20;99.90;;;;;;5025722;28;20076;-65
2022/01/04 10:17:06;;;;;;;9.63;1.35;;;7.10;99.90;;;;;;5018842;28;20053;-67
2022/01/04 10:19:53;;;;;;;3.90;1.73;;;7.10;99.90;;;;;;5022314;28;20095;-67
2022/01/04 10:22:23;;;;;;;9.20;1.10;;;7.00;99.90;;;;;;5019990;28;20575;-66
2022/01/04 10:25:10;;;;;;;9.07;1.23;;;6.90;99.90;;;;;;5024184;28;20053;-66
2022/01/04 10:27:42;;;;;;;9.15;1.33;;;7.00;99.90;;;;;;5002728;28;20140;-66
2022/01/04 10:30:32;;;;;;;4.72;2.15;;;7.00;99.90;;;;;;5020960;28;20053;-67
2022/01/04 10:33:03;;;;;;;6.82;1.58;;;7.00;99.90;;;;;;5020547;28;20054;-67
2022/01/04 10:35:33;;;;;;;6.53;1.27;;;7.00;99.90;;;;;;5026216;28;20061;-67
2022/01/04 10:38:20;;;;;;;7.25;0.80;;;6.90;99.90;;;;;;5019372;28;20562;-67
2022/01/04 10:40:56;;;;;;;5.53;0.80;;;6.90;99.90;;;;;;5000596;28;20156;-67
2022/01/04 10:43:24;;;;;;;4.90;0.73;;;7.00;99.90;;;;;;5023024;28;20519;-67
2022/01/04 10:45:50;;;;;;;3.00;0.75;;;7.00;99.90;;;;;;5032038;28;20041;-67
2022/01/04 10:48:25;;;;;;;6.15;1.13;;;7.00;99.90;;;;;;5004107;28;20069;-66
2022/01/04 10:51:15;;;;;;;5.75;1.08;;;7.10;99.90;;;;;;5008836;28;20081;-66
2022/01/04 10:53:47;;;;;;;6.65;1.77;;;7.10;99.90;;;;;;5015526;28;20053;-66
2022/01/04 10:56:23;;;;;;;7.93;1.10;;;7.10;99.90;;;;;;5007777;28;20443;-66
2022/01/04 10:58:50;;;;;;;9.18;1.63;;;7.10;99.90;;;;;;5017963;28;20045;-66
2022/01/04 11:01:18;;;;;;;4.95;1.20;;;7.20;99.90;;;;;;5019816;28;20544;-66
2022/01/04 11:03:59;;;;;;;5.90;1.42;;;7.10;99.90;;;;;;5008875;28;20056;-64
2022/01/04 11:06:28;;;;;;;5.85;1.00;;;7.20;99.90;;;;;;5021697;28;20046;-64
2022/01/04 11:08:55;;;;;;;9.52;1.30;;;7.20;99.90;;;;;;5004571;28;20154;-65
2022/01/04 11:11:21;;;;;;;9.18;1.73;;;7.10;99.90;;;;;;5023683;28;20045;-65
2022/01/04 11:13:51;;;;;;;10.85;1.98;;;7.10;99.90;;;;;;5006756;28;20140;-65
2022/01/04 11:16:18;;;;;;;7.78;2.22;;;7.20;99.90;;;;;;5009661;28;20045;-65
2022/01/04 11:18:50;;;;;;;6.15;1.40;;;7.20;99.90;;;;;;5024755;28;20132;-65
2022/01/04 11:21:20;;;;;;;10.88;1.58;;;7.20;99.90;;;;;;5005639;28;20054;-65
2022/01/04 11:23:47;;;;;;;9.18;1.30;;;7.30;99.90;;;;;;5008948;28;20037;-65
2022/01/04 11:26:14;;;;;;;8.52;1.45;;;7.30;99.90;;;;;;5014022;28;20061;-65
2022/01/04 11:28:43;;;;;;;7.88;1.85;;;7.30;99.90;;;;;;5025829;28;20045;-65
2022/01/04 11:31:45;;;;;;;5.95;1.50;;;7.40;99.90;;;;;;5021374;28;20430;-66
2022/01/04 11:34:17;;;;;;;12.95;2.83;;;7.40;99.90;;;;;;5020271;28;20056;-65
2022/01/04 11:36:50;;;;;;;12.95;4.90;;;7.40;99.90;;;;;;5004074;28;20416;-65
2022/01/04 11:39:36;;;;;;;15.32;5.13;;;7.50;99.90;;;;;;5023658;28;20037;-65
2022/01/04 11:42:08;;;;;;;19.33;4.70;;;7.50;99.90;;;;;;5009433;28;20080;-65
2022/01/04 11:44:41;;;;;;;11.75;2.90;;;7.50;99.90;;;;;;5024114;28;20050;-65
2022/01/04 11:47:10;;;;;;;12.20;2.70;;;7.40;99.90;;;;;;5029840;28;20061;-66
2022/01/04 11:49:59;;;;;;;10.55;2.08;;;7.40;99.90;;;;;;5020901;28;20041;-66
2022/01/04 11:52:43;;;;;;;10.77;2.38;;;7.50;99.90;;;;;;5021578;28;20041;-66
2022/01/04 11:55:14;;;;;;;13.57;2.45;;;7.30;99.90;;;;;;5022030;28;20056;-66
2022/01/04 11:57:40;;;;;;;8.68;2.33;;;7.30;99.90;;;;;;5027843;28;20056;-66
2022/01/04 12:00:06;;;;;;;12.13;1.42;;;7.30;99.90;;;;;;5022855;28;20392;-66
2022/01/04 12:02:39;;;;;;;10.25;1.77;;;7.20;99.90;;;;;;5026981;28;20132;-66
2022/01/04 12:05:22;;;;;;;17.63;2.72;;;7.20;99.90;;;;;;5018278;28;20441;-66
2022/01/04 12:07:49;;;;;;;;;;;7.10;99.90;;;;;;5020461;28;20037;-66
2022/01/04 12:10:18;;;;;;;3.08;1.10;;;7.10;99.90;;;;;;5026234;28;19929;-66
2022/01/04 12:12:56;;;;;;;6.72;1.88;;;7.00;99.90;;;;;;5023398;28;20049;-66
2022/01/04 12:15:34;;;;;;;5.70;1.23;;;7.00;99.90;;;;;;5021335;28;20388;-66
2022/01/04 12:18:01;;;;;;;5.57;1.30;;;7.00;99.90;;;;;;5026143;28;20050;-66
2022/01/04 12:20:41;;;;;;;6.00;1.65;;;7.00;99.90;;;;;;5022271;28;20092;-66
2022/01/04 12:23:36;;;;;;;10.35;2.15;;;7.00;99.90;;;;;;5016343;28;20125;-66
2022/01/04 12:26:05;;;;;;;8.30;1.85;;;7.00;99.90;;;;;;5005270;28;20055;-66
2022/01/04 12:28:39;;;;;;;6.72;1.73;;;7.00;99.90;;;;;;5007007;28;20054;-66
2022/01/04 12:31:24;;;;;;;3.75;1.42;;;7.00;99.90;;;;;;5003361;28;20057;-66
2022/01/04 12:33:51;;;;;;;5.63;1.55;;;7.00;99.90;;;;;;4999080;28;20700;-66
2022/01/04 12:36:40;;;;;;;3.70;0.63;;;6.90;99.90;;;;;;5004754;28;20046;-65
2022/01/04 12:39:08;;;;;;;7.32;1.45;;;7.00;99.90;;;;;;4997198;28;20049;-65
2022/01/04 12:41:36;;;;;;;6.68;1.48;;;7.00;99.90;;;;;;4999764;28;20120;-65
2022/01/04 12:44:03;;;;;;;8.05;1.65;;;7.00;99.90;;;;;;5003595;28;20075;-65
2022/01/04 12:46:35;;;;;;;6.18;1.35;;;7.10;99.90;;;;;;4988157;28;20610;-65
2022/01/04 12:49:05;;;;;;;7.47;1.08;;;7.10;99.90;;;;;;5001816;28;20061;-65
2022/01/04 12:51:35;;;;;;;9.40;1.15;;;7.10;99.90;;;;;;4987575;28;20053;-65
2022/01/04 12:54:28;;;;;;;10.40;1.50;;;7.10;99.90;;;;;;4986414;28;20413;-65
2022/01/04 12:57:03;;;;;;;11.40;2.75;;;7.20;99.90;;;;;;4983315;28;20089;-65
2022/01/04 12:59:31;;;;;;;6.22;1.27;;;7.20;99.90;;;;;;4992200;28;20092;-65
2022/01/04 13:02:02;;;;;;;7.78;1.25;;;7.30;99.90;;;;;;4988199;28;20121;-65